Time;durP1;ratioP1;P1;durP2;ratioP2;P2;SDS_P1;SDS_P2;PMS_P1;PMS_P2;Temp;Humidity;BMP_temperature;BMP_pressure;BME280_temperature;BME280_humidity;BME280_pressure;Samples;Min_cycle;Max_cycle;Signal;HPM_P1;HPM_P2
2024/03/12 00:00:15;;;;;;;11.90;6.10;;;7.60;98.00;;;;;;5014296;28;20462;-69
2024/03/12 00:02:44;;;;;;;12.23;5.97;;;7.60;98.00;;;;;;5015382;28;20458;-68
2024/03/12 00:05:15;;;;;;;12.17;6.03;;;7.50;98.00;;;;;;5015385;28;20549;-68
2024/03/12 00:07:42;;;;;;;12.90;6.20;;;7.50;98.00;;;;;;5015158;28;20856;-68
2024/03/12 00:10:16;;;;;;;12.93;6.07;;;7.40;98.00;;;;;;5015219;28;20461;-68
2024/03/12 00:12:47;;;;;;;11.87;5.43;;;7.20;98.00;;;;;;5015262;28;20517;-69
2024/03/12 00:15:16;;;;;;;12.47;5.47;;;7.10;98.00;;;;;;5015211;28;20462;-68
2024/03/12 00:17:43;;;;;;;11.83;5.63;;;7.00;98.00;;;;;;5015063;28;20533;-68
2024/03/12 00:20:17;;;;;;;11.83;6.30;;;7.00;98.00;;;;;;5015043;28;20455;-69
2024/03/12 00:22:45;;;;;;;10.53;5.60;;;7.00;98.00;;;;;;5014890;28;20461;-68
2024/03/12 00:25:15;;;;;;;12.70;6.17;;;7.10;98.00;;;;;;5014942;28;20506;-68
2024/03/12 00:27:43;;;;;;;13.60;6.50;;;7.10;98.00;;;;;;5014812;28;20491;-69
2024/03/12 00:30:11;;;;;;;10.30;5.70;;;7.30;98.00;;;;;;5015276;28;20455;-68
2024/03/12 00:32:39;;;;;;;12.53;6.10;;;7.20;98.00;;;;;;5014922;28;20813;-68
2024/03/12 00:35:10;;;;;;;13.20;5.77;;;7.10;98.00;;;;;;5014665;28;20456;-69
2024/03/12 00:37:38;;;;;;;11.10;5.57;;;7.00;98.00;;;;;;5014891;28;21014;-68
2024/03/12 00:40:10;;;;;;;11.70;5.47;;;6.80;98.00;;;;;;5014533;28;20459;-69
2024/03/12 00:42:40;;;;;;;9.83;5.23;;;6.70;98.00;;;;;;4997912;28;20568;-68
2024/03/12 00:45:11;;;;;;;7.97;4.77;;;6.50;98.00;;;;;;5014688;28;20464;-68
2024/03/12 00:47:38;;;;;;;8.80;5.13;;;6.50;98.00;;;;;;5014806;28;20830;-69
2024/03/12 00:50:08;;;;;;;9.60;4.97;;;6.40;98.00;;;;;;5014693;28;20463;-68
2024/03/12 00:52:36;;;;;;;9.03;4.83;;;6.30;98.00;;;;;;4997133;28;20518;-69
2024/03/12 00:55:04;;;;;;;11.80;5.50;;;6.30;98.00;;;;;;5014061;28;20459;-68
2024/03/12 00:57:34;;;;;;;10.00;4.83;;;6.10;98.00;;;;;;5013966;28;20463;-68
2024/03/12 01:00:02;;;;;;;9.80;4.70;;;6.10;98.00;;;;;;5013695;28;20517;-68
2024/03/12 01:02:31;;;;;;;8.93;4.70;;;6.10;98.00;;;;;;5013703;28;20881;-68
2024/03/12 01:04:59;;;;;;;7.57;4.30;;;6.10;98.00;;;;;;5013189;28;20462;-68
2024/03/12 01:07:26;;;;;;;9.13;4.60;;;6.20;98.00;;;;;;5013639;28;20489;-69
2024/03/12 01:09:55;;;;;;;9.57;4.60;;;6.10;98.00;;;;;;4995680;28;20459;-69
2024/03/12 01:12:24;;;;;;;9.83;4.60;;;6.30;98.00;;;;;;5013822;28;20851;-69
2024/03/12 01:14:52;;;;;;;11.20;5.07;;;6.40;98.00;;;;;;4996554;28;20549;-69
2024/03/12 01:20:02;;;;;;;11.43;5.07;;;6.50;98.00;;;;;;5013404;28;20558;-68
2024/03/12 01:22:30;;;;;;;8.30;4.10;;;6.50;98.00;;;;;;5013675;28;20507;-69
2024/03/12 01:24:58;;;;;;;7.47;4.27;;;6.50;98.00;;;;;;5013631;28;20455;-68
2024/03/12 01:27:25;;;;;;;11.03;5.00;;;6.40;98.00;;;;;;5013710;28;20472;-68
2024/03/12 01:29:52;;;;;;;12.93;4.60;;;6.30;98.00;;;;;;5013515;28;20451;-69
2024/03/12 01:32:21;;;;;;;13.10;4.50;;;6.20;98.00;;;;;;5013510;28;20469;-69
2024/03/12 01:34:48;;;;;;;8.07;4.63;;;6.20;98.00;;;;;;5013450;28;20466;-68
2024/03/12 01:37:16;;;;;;;8.57;4.80;;;6.30;98.00;;;;;;5013387;28;20487;-68
2024/03/12 01:39:52;;;;;;;10.30;4.87;;;6.10;98.00;;;;;;5013287;28;20489;-68
2024/03/12 01:42:21;;;;;;;8.90;4.63;;;6.10;98.00;;;;;;5013353;28;20494;-68
2024/03/12 01:44:50;;;;;;;8.47;4.60;;;6.20;98.00;;;;;;5013331;28;20459;-68
2024/03/12 01:47:17;;;;;;;12.30;4.33;;;6.00;98.00;;;;;;5013221;28;20464;-69
2024/03/12 01:49:48;;;;;;;9.20;4.50;;;5.80;98.00;;;;;;4995725;28;20474;-69
2024/03/12 01:52:17;;;;;;;10.03;4.90;;;5.90;98.00;;;;;;5012860;28;20490;-68
2024/03/12 01:54:45;;;;;;;12.97;4.87;;;5.90;98.00;;;;;;4995801;28;20459;-69
2024/03/12 01:57:13;;;;;;;8.70;4.43;;;5.90;98.00;;;;;;5013067;28;20447;-68
2024/03/12 01:59:41;;;;;;;6.43;4.23;;;5.70;98.00;;;;;;5013065;28;20493;-68
2024/03/12 02:02:08;;;;;;;5.83;3.80;;;5.80;98.00;;;;;;4995618;28;20882;-69
2024/03/12 02:04:37;;;;;;;7.60;4.10;;;5.80;98.00;;;;;;5012807;28;20461;-68
2024/03/12 02:07:06;;;;;;;9.30;4.77;;;5.80;98.00;;;;;;4995875;28;20469;-68
2024/03/12 02:09:33;;;;;;;7.30;3.80;;;5.60;98.00;;;;;;5012920;28;20468;-68
2024/03/12 02:12:01;;;;;;;7.70;3.40;;;5.70;98.00;;;;;;5012994;28;20466;-68
2024/03/12 02:14:28;;;;;;;5.33;3.60;;;5.70;98.00;;;;;;5012792;28;20462;-68
2024/03/12 02:16:55;;;;;;;7.13;3.60;;;5.60;98.00;;;;;;4995337;28;20465;-68
2024/03/12 02:19:23;;;;;;;6.80;3.43;;;5.50;98.00;;;;;;5012727;28;20479;-68
2024/03/12 02:21:50;;;;;;;7.57;3.90;;;5.40;98.00;;;;;;5011988;28;20494;-68
2024/03/12 02:24:18;;;;;;;5.13;3.20;;;5.40;98.00;;;;;;5012946;28;20842;-68
2024/03/12 02:26:46;;;;;;;5.87;3.47;;;5.30;98.00;;;;;;5012720;28;20461;-68
2024/03/12 02:29:15;;;;;;;6.77;3.90;;;5.30;98.00;;;;;;5012516;28;20465;-68
2024/03/12 02:31:42;;;;;;;6.27;3.40;;;5.30;98.00;;;;;;4995338;28;20787;-68
2024/03/12 02:34:09;;;;;;;7.63;3.70;;;5.30;98.00;;;;;;5012485;28;20493;-68
2024/03/12 02:36:36;;;;;;;6.17;3.30;;;5.20;98.00;;;;;;5012488;28;20460;-69
2024/03/12 02:39:06;;;;;;;8.53;3.67;;;5.10;98.00;;;;;;5012156;28;20940;-68
2024/03/12 02:41:35;;;;;;;7.77;3.70;;;5.20;98.00;;;;;;5012428;28;20498;-68
2024/03/12 02:44:02;;;;;;;7.03;3.60;;;5.20;98.00;;;;;;5012835;28;20458;-68
2024/03/12 02:46:29;;;;;;;5.10;3.30;;;5.20;98.00;;;;;;5012463;28;20458;-68
2024/03/12 02:48:57;;;;;;;6.93;3.93;;;5.30;98.00;;;;;;5012387;28;20967;-68
2024/03/12 02:51:26;;;;;;;6.97;3.63;;;5.30;98.00;;;;;;5012407;28;20501;-68
2024/03/12 02:53:53;;;;;;;6.70;4.03;;;5.10;98.00;;;;;;5012029;28;20931;-68
2024/03/12 02:56:20;;;;;;;8.40;4.20;;;5.10;98.00;;;;;;5011909;28;20457;-68
2024/03/12 02:58:49;;;;;;;7.83;4.10;;;5.30;98.00;;;;;;4994780;28;20517;-69
2024/03/12 03:01:16;;;;;;;6.83;4.07;;;5.20;98.00;;;;;;5011993;28;20498;-68
2024/03/12 03:03:43;;;;;;;5.43;3.57;;;5.30;98.00;;;;;;4994312;28;20448;-69
2024/03/12 03:06:11;;;;;;;6.57;3.60;;;5.10;98.00;;;;;;5012163;28;20469;-68
2024/03/12 03:08:38;;;;;;;8.80;4.20;;;5.00;98.00;;;;;;4994509;28;20458;-69
2024/03/12 03:11:05;;;;;;;6.60;4.00;;;4.90;98.00;;;;;;5011986;28;20462;-68
2024/03/12 03:13:33;;;;;;;9.17;4.03;;;5.00;98.00;;;;;;5012021;28;20804;-69
2024/03/12 03:16:02;;;;;;;6.93;3.97;;;5.10;98.00;;;;;;5011957;28;20457;-68
2024/03/12 03:18:30;;;;;;;7.20;3.87;;;5.20;98.00;;;;;;5011854;28;20462;-68
2024/03/12 03:20:57;;;;;;;8.83;3.90;;;5.20;98.00;;;;;;5011995;28;20489;-68
2024/03/12 03:23:25;;;;;;;6.60;3.60;;;5.30;98.00;;;;;;5011919;28;20505;-68
2024/03/12 03:25:52;;;;;;;16.20;5.03;;;5.20;98.00;;;;;;5011983;28;20447;-68
2024/03/12 03:28:19;;;;;;;10.83;4.60;;;5.10;98.00;;;;;;4994419;28;20461;-69
2024/03/12 03:30:53;;;;;;;13.27;5.67;;;5.00;98.00;;;;;;5011603;28;20941;-68
2024/03/12 03:33:22;;;;;;;10.13;4.60;;;4.90;98.00;;;;;;5013525;28;20545;-68
2024/03/12 03:35:51;;;;;;;9.50;4.23;;;4.80;98.00;;;;;;5015250;28;20448;-68
2024/03/12 03:38:19;;;;;;;6.07;3.90;;;4.80;98.00;;;;;;5015501;28;20466;-68
2024/03/12 03:40:46;;;;;;;7.63;3.93;;;4.80;98.00;;;;;;5015457;28;20463;-68
2024/03/12 03:43:14;;;;;;;11.63;4.03;;;4.90;98.00;;;;;;5015195;28;20485;-68
2024/03/12 03:45:41;;;;;;;6.70;3.63;;;4.80;98.00;;;;;;5015398;28;20455;-68
2024/03/12 03:48:09;;;;;;;6.73;3.83;;;4.80;98.00;;;;;;5015107;28;20564;-68
2024/03/12 03:50:37;;;;;;;7.70;4.00;;;4.80;98.00;;;;;;5015155;28;20458;-69
2024/03/12 03:53:08;;;;;;;7.17;4.00;;;4.80;98.00;;;;;;5015088;28;20464;-68
2024/03/12 03:55:35;;;;;;;6.00;3.67;;;4.90;98.00;;;;;;5015304;28;20462;-68
2024/03/12 03:58:02;;;;;;;5.53;3.20;;;4.90;98.00;;;;;;5015139;28;20548;-68
2024/03/12 04:00:35;;;;;;;5.73;3.60;;;5.00;98.00;;;;;;5014538;28;20508;-68
2024/03/12 04:03:04;;;;;;;5.60;3.13;;;5.10;98.00;;;;;;5015208;28;20538;-68
2024/03/12 04:05:32;;;;;;;10.73;3.77;;;5.10;98.00;;;;;;5014921;28;20455;-68
2024/03/12 04:08:02;;;;;;;6.90;4.00;;;5.10;98.00;;;;;;5015092;28;20516;-68
2024/03/12 04:10:30;;;;;;;7.87;4.03;;;5.40;98.00;;;;;;5015113;28;20482;-68
2024/03/12 04:12:58;;;;;;;6.33;3.60;;;5.50;98.00;;;;;;5015237;28;20464;-68
2024/03/12 04:15:28;;;;;;;7.93;3.40;;;5.60;98.00;;;;;;5014822;28;20474;-68
2024/03/12 04:17:56;;;;;;;5.87;3.50;;;5.60;98.00;;;;;;4998141;28;20489;-68
2024/03/12 04:20:23;;;;;;;5.80;4.00;;;5.60;98.00;;;;;;5013986;28;20454;-68
2024/03/12 04:22:50;;;;;;;11.80;5.13;;;5.70;98.00;;;;;;5014820;28;20484;-68
2024/03/12 04:25:19;;;;;;;10.20;4.90;;;5.80;98.00;;;;;;4997607;28;20450;-68
2024/03/12 04:27:46;;;;;;;11.00;4.50;;;5.70;98.00;;;;;;4997264;28;20460;-68
2024/03/12 04:30:14;;;;;;;8.60;4.20;;;5.80;98.00;;;;;;5014720;28;20578;-68
2024/03/12 04:32:42;;;;;;;8.47;4.60;;;5.80;98.00;;;;;;5014985;28;20512;-68
2024/03/12 04:35:12;;;;;;;9.33;4.13;;;5.90;98.00;;;;;;5014627;28;20468;-68
2024/03/12 04:37:39;;;;;;;7.50;3.70;;;5.80;98.00;;;;;;5014684;28;20456;-68
2024/03/12 04:40:07;;;;;;;8.30;4.40;;;5.70;98.00;;;;;;5014524;28;20452;-68
2024/03/12 04:42:36;;;;;;;7.63;3.90;;;5.60;98.00;;;;;;5014412;28;20527;-68
2024/03/12 04:45:06;;;;;;;8.00;3.87;;;5.50;98.00;;;;;;5013375;28;20472;-68
2024/03/12 04:47:35;;;;;;;8.50;3.73;;;5.50;98.00;;;;;;5013948;28;20980;-68
2024/03/12 04:50:04;;;;;;;6.77;3.37;;;5.50;98.00;;;;;;5014145;28;20453;-68
2024/03/12 04:52:33;;;;;;;5.30;3.20;;;5.50;98.00;;;;;;5014069;28;21114;-68
2024/03/12 04:55:01;;;;;;;5.27;3.57;;;5.50;98.00;;;;;;5013892;28;20518;-68
2024/03/12 04:57:28;;;;;;;7.07;3.70;;;5.70;98.00;;;;;;5013978;28;20501;-68
2024/03/12 04:59:57;;;;;;;5.20;3.50;;;5.70;98.00;;;;;;5006335;28;20455;-68
2024/03/12 05:02:24;;;;;;;6.10;3.50;;;5.80;98.00;;;;;;4977059;28;20487;-69
2024/03/12 05:04:51;;;;;;;4.87;3.10;;;5.90;98.00;;;;;;4977079;28;20486;-68
2024/03/12 05:07:19;;;;;;;7.50;3.77;;;5.90;98.00;;;;;;4993811;28;20454;-68
2024/03/12 05:09:46;;;;;;;9.10;3.80;;;6.00;98.00;;;;;;4994299;28;20464;-68
2024/03/12 05:12:13;;;;;;;5.87;3.43;;;6.00;98.00;;;;;;4977240;28;20542;-68
2024/03/12 05:14:40;;;;;;;6.17;3.87;;;6.20;98.00;;;;;;4994195;28;20461;-68
2024/03/12 05:17:07;;;;;;;11.40;4.73;;;6.30;98.00;;;;;;4994050;28;20451;-68
2024/03/12 05:19:35;;;;;;;8.80;4.37;;;6.40;98.00;;;;;;4993797;28;20463;-68
2024/03/12 05:22:05;;;;;;;6.83;3.90;;;6.40;98.00;;;;;;4976798;28;20491;-68
2024/03/12 05:24:33;;;;;;;9.50;4.43;;;6.20;98.00;;;;;;4993834;28;20457;-68
2024/03/12 05:27:01;;;;;;;7.77;4.30;;;6.00;98.00;;;;;;4994063;28;20891;-68
2024/03/12 05:29:36;;;;;;;7.37;4.30;;;5.90;98.00;;;;;;4994065;28;20489;-68
2024/03/12 05:32:17;;;;;;;10.70;4.37;;;6.00;98.00;;;;;;4993138;28;20458;-68
2024/03/12 05:34:47;;;;;;;8.37;3.83;;;6.10;98.00;;;;;;4977663;28;20510;-68
2024/03/12 05:37:28;;;;;;;8.60;4.00;;;6.20;98.00;;;;;;4993821;28;20603;-68
2024/03/12 05:48:18;;;;;;;8.47;4.13;;;5.70;98.00;;;;;;5008325;28;20443;-68
2024/03/12 05:50:46;;;;;;;6.57;3.73;;;5.70;98.00;;;;;;5013123;28;20450;-68
2024/03/12 05:53:15;;;;;;;12.90;4.73;;;5.60;98.00;;;;;;5013266;28;20450;-68
2024/03/12 05:55:42;;;;;;;10.20;5.10;;;5.70;98.00;;;;;;5013184;28;20512;-68
2024/03/12 05:58:12;;;;;;;8.10;4.23;;;5.80;98.00;;;;;;5013145;28;20452;-68
2024/03/12 06:00:39;;;;;;;6.90;4.17;;;5.90;98.00;;;;;;5012955;28;20551;-68
2024/03/12 06:03:07;;;;;;;7.20;4.07;;;6.00;98.00;;;;;;4995665;28;20488;-68
2024/03/12 06:05:35;;;;;;;6.33;3.67;;;6.10;98.00;;;;;;5013174;28;20545;-68
2024/03/12 06:08:05;;;;;;;7.13;3.80;;;6.10;98.00;;;;;;5012759;28;20508;-68
2024/03/12 06:10:32;;;;;;;5.80;3.57;;;6.20;98.00;;;;;;5013109;28;20458;-68
2024/03/12 06:12:59;;;;;;;7.13;4.30;;;6.20;98.00;;;;;;5013011;28;20470;-68
2024/03/12 06:15:29;;;;;;;10.50;4.13;;;6.30;98.00;;;;;;5013177;28;20446;-68
2024/03/12 06:17:56;;;;;;;6.90;3.50;;;6.30;98.00;;;;;;5013156;28;20458;-69
2024/03/12 06:20:25;;;;;;;7.27;3.80;;;6.40;98.00;;;;;;5013125;28;20486;-69
2024/03/12 06:22:52;;;;;;;8.00;3.67;;;6.30;98.00;;;;;;5012708;28;20491;-68
2024/03/12 06:25:22;;;;;;;8.90;4.23;;;6.40;98.00;;;;;;5012620;28;20524;-68
2024/03/12 06:27:50;;;;;;;4.93;3.40;;;6.50;98.00;;;;;;5012639;28;20949;-68
2024/03/12 06:30:18;;;;;;;6.07;3.53;;;6.50;98.00;;;;;;5012556;28;20457;-68
2024/03/12 06:32:46;;;;;;;9.57;4.03;;;6.50;98.00;;;;;;5012391;28;20455;-68
2024/03/12 06:35:13;;;;;;;6.23;3.60;;;6.50;98.00;;;;;;5012375;28;20485;-69
2024/03/12 06:37:40;;;;;;;6.30;3.73;;;6.50;98.00;;;;;;5012737;28;20457;-68
2024/03/12 06:40:10;;;;;;;6.30;3.70;;;6.60;98.00;;;;;;4995150;28;20454;-69
2024/03/12 06:42:41;;;;;;;5.97;3.80;;;6.70;98.00;;;;;;5012191;28;20543;-68
2024/03/12 06:45:11;;;;;;;8.10;4.00;;;6.70;98.00;;;;;;4994827;28;20455;-68
2024/03/12 06:47:40;;;;;;;8.00;4.20;;;6.70;98.00;;;;;;5012125;28;20462;-68
2024/03/12 06:50:09;;;;;;;7.17;4.30;;;6.90;98.00;;;;;;5012180;28;20993;-68
2024/03/12 06:52:37;;;;;;;7.33;3.63;;;7.00;98.00;;;;;;5012636;28;21011;-68
2024/03/12 06:55:12;;;;;;;8.47;4.00;;;7.10;98.00;;;;;;5012662;28;20468;-68
2024/03/12 06:57:47;;;;;;;5.83;3.87;;;7.20;98.00;;;;;;5012937;28;20469;-68
2024/03/12 07:00:22;;;;;;;7.40;3.97;;;7.20;98.00;;;;;;5012457;28;20952;-77
2024/03/12 07:02:52;;;;;;;7.27;3.80;;;7.30;98.00;;;;;;5012431;28;20820;-77
2024/03/12 07:05:20;;;;;;;6.40;3.80;;;7.40;98.00;;;;;;4994916;28;20921;-77
2024/03/12 07:07:47;;;;;;;6.27;3.53;;;7.40;98.00;;;;;;5014449;28;20458;-77
2024/03/12 07:10:18;;;;;;;5.27;3.50;;;7.50;98.00;;;;;;5018564;28;20454;-77
2024/03/12 07:12:47;;;;;;;5.47;3.37;;;7.60;98.00;;;;;;5018630;28;20957;-77
2024/03/12 07:15:18;;;;;;;7.13;4.60;;;7.60;98.00;;;;;;5018258;28;20455;-77
2024/03/12 07:17:45;;;;;;;10.93;5.30;;;7.70;98.00;;;;;;5018566;28;20470;-75
2024/03/12 07:20:15;;;;;;;16.13;6.20;;;7.80;98.00;;;;;;5017471;28;20472;-75
2024/03/12 07:22:42;;;;;;;12.73;6.13;;;7.80;98.00;;;;;;5012234;28;20863;-74
2024/03/12 07:25:11;;;;;;;13.50;6.47;;;7.70;98.00;;;;;;4981481;28;20468;-75
2024/03/12 07:27:40;;;;;;;9.67;5.37;;;7.80;98.00;;;;;;4998659;28;20518;-75
2024/03/12 07:30:10;;;;;;;10.77;5.27;;;7.80;98.00;;;;;;4981620;28;20814;-75
2024/03/12 07:32:38;;;;;;;11.57;5.97;;;7.80;98.00;;;;;;4998620;28;20518;-75
2024/03/12 07:35:05;;;;;;;10.70;5.70;;;7.90;98.00;;;;;;4998225;28;20539;-75
2024/03/12 07:37:39;;;;;;;12.30;6.10;;;8.00;98.00;;;;;;4998908;28;20482;-75
2024/03/12 07:40:09;;;;;;;11.10;6.23;;;8.20;98.00;;;;;;4998898;28;20460;-75
2024/03/12 07:42:38;;;;;;;10.73;5.80;;;8.10;98.00;;;;;;4998928;28;20567;-75
2024/03/12 07:45:06;;;;;;;13.10;6.00;;;8.10;98.00;;;;;;4998343;28;20465;-75
2024/03/12 07:47:35;;;;;;;11.67;5.50;;;8.00;98.00;;;;;;4998863;28;21004;-74
2024/03/12 07:50:02;;;;;;;11.20;5.40;;;7.90;98.00;;;;;;4998798;28;20487;-75
2024/03/12 07:52:30;;;;;;;12.73;5.90;;;7.80;98.00;;;;;;4998805;28;20464;-75
2024/03/12 07:54:58;;;;;;;14.37;6.50;;;7.90;98.00;;;;;;4997913;28;20456;-75
2024/03/12 07:57:26;;;;;;;11.60;5.73;;;7.80;98.00;;;;;;4981240;28;20559;-75
2024/03/12 07:59:53;;;;;;;19.97;5.80;;;7.70;98.00;;;;;;4998536;28;20456;-75
2024/03/12 08:02:22;;;;;;;11.63;5.67;;;7.80;98.00;;;;;;4998735;28;20789;-75
2024/03/12 08:04:51;;;;;;;15.50;6.20;;;7.80;98.00;;;;;;4998021;28;20493;-75
2024/03/12 08:07:19;;;;;;;9.50;5.80;;;7.80;98.00;;;;;;4998615;28;20456;-75
2024/03/12 08:09:48;;;;;;;13.80;5.80;;;7.90;98.00;;;;;;4998762;28;20509;-75
2024/03/12 08:12:17;;;;;;;12.43;6.20;;;8.10;98.00;;;;;;4998624;28;20549;-75
2024/03/12 08:14:44;;;;;;;10.53;5.80;;;8.00;98.00;;;;;;4998596;28;20456;-75
2024/03/12 08:17:22;;;;;;;11.90;5.30;;;8.00;98.00;;;;;;4997281;28;20471;-75
2024/03/12 08:19:51;;;;;;;13.47;5.93;;;8.10;98.00;;;;;;4979794;28;20467;-75
2024/03/12 08:22:19;;;;;;;16.40;5.50;;;8.00;98.00;;;;;;4995589;28;20777;-74
2024/03/12 08:24:47;;;;;;;11.23;6.13;;;8.20;98.00;;;;;;4994908;28;20499;-74
2024/03/12 08:27:14;;;;;;;11.27;5.43;;;8.30;98.00;;;;;;4994438;28;20946;-75
2024/03/12 08:29:41;;;;;;;10.30;5.30;;;8.30;98.00;;;;;;4994947;28;20455;-75
2024/03/12 08:32:08;;;;;;;9.60;5.63;;;8.30;98.00;;;;;;4995073;28;20564;-75
2024/03/12 08:34:36;;;;;;;12.30;5.20;;;8.20;98.00;;;;;;4994895;28;20506;-75
2024/03/12 08:37:05;;;;;;;9.47;5.30;;;8.20;98.00;;;;;;4994933;28;20550;-74
2024/03/12 08:39:33;;;;;;;10.00;5.07;;;8.30;98.00;;;;;;4994625;28;20463;-74
2024/03/12 08:42:00;;;;;;;10.20;5.50;;;8.40;98.00;;;;;;5014350;28;20459;-74
2024/03/12 08:44:28;;;;;;;10.60;5.50;;;8.40;98.00;;;;;;5014225;28;20503;-75
2024/03/12 08:46:55;;;;;;;10.23;5.20;;;8.50;98.00;;;;;;5007763;28;20548;-74
2024/03/12 08:49:22;;;;;;;7.57;4.53;;;8.50;98.00;;;;;;4994786;28;20452;-76
2024/03/12 08:51:50;;;;;;;9.80;5.33;;;8.50;98.00;;;;;;4994634;28;20468;-77
2024/03/12 08:54:18;;;;;;;11.80;5.30;;;8.50;98.00;;;;;;4994448;28;20459;-78
2024/03/12 08:56:45;;;;;;;7.93;4.27;;;8.40;98.00;;;;;;4994713;28;20454;-77
2024/03/12 08:59:15;;;;;;;11.40;4.80;;;8.40;98.00;;;;;;4993919;28;20457;-77
2024/03/12 09:01:44;;;;;;;7.30;3.97;;;8.50;98.00;;;;;;4994509;28;20463;-77
2024/03/12 09:04:12;;;;;;;7.50;4.10;;;8.50;98.00;;;;;;4977362;28;21043;-77
2024/03/12 09:06:40;;;;;;;5.40;3.50;;;8.50;98.00;;;;;;4994337;28;20483;-78
2024/03/12 09:09:09;;;;;;;6.93;3.97;;;8.60;98.00;;;;;;4994468;28;20873;-77
2024/03/12 09:11:38;;;;;;;6.77;3.93;;;8.40;98.00;;;;;;4994473;28;20469;-77
2024/03/12 09:14:06;;;;;;;5.80;3.50;;;8.40;98.00;;;;;;4976835;28;20528;-77
2024/03/12 09:16:33;;;;;;;7.43;3.40;;;8.60;98.00;;;;;;4993379;28;20470;-77
2024/03/12 09:19:01;;;;;;;5.13;3.30;;;8.60;98.00;;;;;;4994323;28;21843;-77
2024/03/12 09:21:28;;;;;;;6.47;3.50;;;8.70;98.00;;;;;;4994401;28;20465;-77
2024/03/12 09:23:55;;;;;;;5.70;3.20;;;8.60;98.00;;;;;;4994113;28;20546;-77
2024/03/12 09:26:24;;;;;;;4.57;3.27;;;8.70;98.00;;;;;;4994140;28;20460;-77
2024/03/12 09:28:53;;;;;;;5.70;3.20;;;8.70;98.00;;;;;;4993963;28;20463;-78
2024/03/12 09:31:20;;;;;;;7.03;3.40;;;8.80;98.00;;;;;;4993593;28;20466;-78
2024/03/12 09:33:47;;;;;;;5.30;3.50;;;8.90;98.00;;;;;;4994015;28;20453;-78
2024/03/12 09:36:16;;;;;;;5.40;3.40;;;8.90;98.00;;;;;;4994016;28;20492;-77
2024/03/12 09:38:44;;;;;;;9.13;3.77;;;8.90;98.00;;;;;;4976405;28;20461;-77
2024/03/12 09:41:12;;;;;;;5.63;3.40;;;9.00;98.00;;;;;;4976256;28;20462;-77
2024/03/12 09:43:43;;;;;;;6.67;3.20;;;9.00;98.00;;;;;;4993905;28;20518;-77
2024/03/12 09:46:12;;;;;;;5.93;3.57;;;8.90;98.00;;;;;;4993923;28;20452;-77
2024/03/12 09:48:42;;;;;;;4.03;2.90;;;8.80;98.00;;;;;;4993867;28;20507;-76
2024/03/12 09:51:09;;;;;;;6.80;3.07;;;8.80;98.00;;;;;;4992416;28;20468;-77
2024/03/12 09:53:37;;;;;;;4.70;2.93;;;8.70;98.00;;;;;;4993743;28;20465;-77
2024/03/12 09:56:07;;;;;;;5.13;3.10;;;8.80;98.00;;;;;;4976610;28;20465;-77
2024/03/12 09:58:37;;;;;;;9.70;3.03;;;8.80;98.00;;;;;;4993592;28;20461;-76
2024/03/12 10:01:06;;;;;;;4.67;2.60;;;8.80;98.00;;;;;;4993086;28;20459;-76
2024/03/12 10:03:35;;;;;;;4.90;2.90;;;8.80;98.00;;;;;;4993290;28;20480;-76
2024/03/12 10:06:03;;;;;;;6.37;3.30;;;8.70;98.00;;;;;;4993330;28;20951;-77
2024/03/12 10:08:31;;;;;;;3.80;2.70;;;8.70;98.00;;;;;;4992983;28;20572;-77
2024/03/12 10:11:01;;;;;;;4.10;2.77;;;8.80;98.00;;;;;;4993259;28;20815;-76
2024/03/12 10:13:29;;;;;;;3.37;2.40;;;8.90;98.00;;;;;;4993222;28;20896;-76
2024/03/12 10:15:58;;;;;;;5.50;2.80;;;9.00;98.00;;;;;;4992891;28;20468;-76
2024/03/12 10:18:27;;;;;;;4.90;3.00;;;8.90;98.00;;;;;;4993301;28;20542;-77
2024/03/12 10:20:58;;;;;;;4.43;2.50;;;9.00;98.00;;;;;;4992853;28;20544;-76
2024/03/12 10:23:27;;;;;;;4.77;3.13;;;9.00;98.00;;;;;;4992760;28;21128;-76
2024/03/12 10:25:56;;;;;;;7.80;3.10;;;9.00;98.00;;;;;;4992937;28;20549;-76
2024/03/12 10:28:25;;;;;;;4.97;2.90;;;9.00;98.00;;;;;;4992885;28;20448;-76
2024/03/12 10:30:53;;;;;;;5.23;2.90;;;8.90;98.00;;;;;;4992896;28;20465;-76
2024/03/12 10:33:21;;;;;;;5.33;3.03;;;8.90;98.00;;;;;;4992778;28;20464;-76
2024/03/12 10:35:50;;;;;;;3.30;2.60;;;8.90;98.00;;;;;;4992857;28;20519;-76
2024/03/12 10:38:28;;;;;;;3.80;2.80;;;9.00;98.00;;;;;;4993074;28;20483;-76
2024/03/12 10:40:56;;;;;;;5.03;2.93;;;9.10;98.00;;;;;;4975508;28;20471;-77
2024/03/12 10:43:25;;;;;;;6.63;3.30;;;9.10;98.00;;;;;;4992253;28;20495;-76
2024/03/12 10:45:55;;;;;;;6.23;3.20;;;9.10;98.00;;;;;;4975650;28;20453;-76
2024/03/12 10:48:23;;;;;;;5.30;2.37;;;9.20;98.00;;;;;;4991912;28;20455;-76
2024/03/12 10:50:51;;;;;;;4.77;2.80;;;9.20;98.00;;;;;;4992636;28;20487;-76
2024/03/12 10:53:19;;;;;;;4.70;2.73;;;9.20;98.00;;;;;;4992481;28;20467;-76
2024/03/12 10:55:49;;;;;;;5.40;3.17;;;9.20;98.00;;;;;;4992585;28;20449;-76
2024/03/12 10:58:17;;;;;;;6.43;3.00;;;9.20;98.00;;;;;;4975247;28;20471;-76
2024/03/12 11:00:45;;;;;;;9.20;3.87;;;9.20;98.00;;;;;;4992467;28;20459;-76
2024/03/12 11:03:15;;;;;;;4.90;2.80;;;9.20;98.00;;;;;;4992542;28;20522;-76
2024/03/12 11:05:44;;;;;;;7.80;3.27;;;9.20;98.00;;;;;;4992174;28;20579;-77
2024/03/12 11:08:13;;;;;;;5.33;3.00;;;9.30;98.00;;;;;;4975254;28;20461;-76
2024/03/12 11:10:42;;;;;;;4.47;2.50;;;9.30;98.00;;;;;;4992649;28;20457;-76
2024/03/12 11:13:13;;;;;;;4.63;2.70;;;9.30;98.00;;;;;;4992474;28;20464;-76
2024/03/12 11:15:41;;;;;;;3.90;2.60;;;9.20;98.00;;;;;;4992476;28;20472;-76
2024/03/12 11:18:09;;;;;;;5.53;2.80;;;9.20;98.00;;;;;;4992191;28;20462;-76
2024/03/12 11:20:40;;;;;;;4.73;2.70;;;9.30;98.00;;;;;;4992211;28;20461;-76
2024/03/12 11:23:08;;;;;;;4.90;2.60;;;9.30;98.00;;;;;;4992386;28;20463;-76
2024/03/12 11:25:45;;;;;;;3.40;2.17;;;9.20;98.00;;;;;;4991902;28;21020;-76
2024/03/12 11:28:22;;;;;;;6.53;3.37;;;9.30;98.00;;;;;;4975771;28;20461;-76
2024/03/12 11:31:00;;;;;;;3.87;2.60;;;9.20;98.00;;;;;;4991559;28;20460;-76
2024/03/12 11:33:46;;;;;;;5.93;3.20;;;9.30;98.00;;;;;;4990638;28;20484;-76
2024/03/12 11:36:22;;;;;;;4.13;2.47;;;9.50;98.00;;;;;;4992078;28;20473;-76
2024/03/12 11:38:51;;;;;;;6.50;3.17;;;9.50;98.00;;;;;;4991681;28;20462;-76
2024/03/12 11:41:19;;;;;;;5.80;2.90;;;9.50;98.00;;;;;;4991265;28;20522;-76
2024/03/12 11:43:48;;;;;;;4.00;2.43;;;9.50;98.00;;;;;;4975229;28;20451;-76
2024/03/12 11:46:20;;;;;;;4.10;2.40;;;9.50;98.00;;;;;;4992589;28;20456;-76
2024/03/12 11:48:48;;;;;;;3.53;2.47;;;9.40;98.00;;;;;;4992074;28;20468;-76
2024/03/12 11:51:18;;;;;;;4.17;2.30;;;9.50;98.00;;;;;;4991960;28;20473;-76
2024/03/12 11:53:47;;;;;;;3.57;2.00;;;9.50;98.00;;;;;;4992658;28;20448;-76
2024/03/12 11:56:19;;;;;;;4.97;2.70;;;9.50;98.00;;;;;;4995480;28;20536;-76
2024/03/12 11:58:52;;;;;;;4.20;2.50;;;9.60;98.00;;;;;;4979334;28;20463;-76
2024/03/12 12:01:21;;;;;;;3.50;2.37;;;9.70;98.00;;;;;;4995803;28;20451;-76
2024/03/12 12:03:56;;;;;;;3.27;2.30;;;9.60;98.00;;;;;;4995623;28;20964;-76
2024/03/12 12:06:24;;;;;;;6.40;2.33;;;9.60;98.00;;;;;;4961738;28;20505;-76
2024/03/12 12:08:51;;;;;;;3.30;2.37;;;9.50;98.00;;;;;;4995420;28;20533;-76
2024/03/12 12:11:18;;;;;;;3.57;2.60;;;9.40;98.00;;;;;;4995413;28;20459;-76
2024/03/12 12:13:47;;;;;;;4.70;2.50;;;9.40;98.00;;;;;;4995778;28;20464;-76
2024/03/12 12:16:18;;;;;;;5.80;2.70;;;9.40;98.00;;;;;;4995465;28;20462;-76
2024/03/12 12:18:47;;;;;;;7.17;2.43;;;9.30;98.00;;;;;;4995040;28;20488;-76
2024/03/12 12:21:16;;;;;;;4.57;2.60;;;9.40;98.00;;;;;;4995153;28;20481;-76
2024/03/12 12:23:46;;;;;;;5.03;2.80;;;9.30;98.00;;;;;;4995367;28;20470;-76
2024/03/12 12:26:18;;;;;;;4.10;2.60;;;9.30;98.00;;;;;;4994194;28;20593;-76
2024/03/12 12:28:48;;;;;;;3.80;2.37;;;9.50;98.00;;;;;;4977676;28;20461;-76
2024/03/12 12:31:18;;;;;;;4.63;2.67;;;9.60;98.00;;;;;;4994355;28;20519;-76
2024/03/12 12:33:48;;;;;;;5.13;2.40;;;9.50;98.00;;;;;;4994497;28;20457;-76
2024/03/12 12:36:18;;;;;;;3.60;2.30;;;9.40;98.00;;;;;;4978012;28;20459;-76
2024/03/12 12:38:46;;;;;;;4.63;2.50;;;9.40;98.00;;;;;;4978559;28;20466;-76
2024/03/12 12:41:15;;;;;;;3.00;2.13;;;9.40;98.00;;;;;;4995031;28;20548;-76
2024/03/12 12:43:43;;;;;;;3.90;2.23;;;9.30;98.00;;;;;;4977654;28;20456;-76
2024/03/12 12:46:16;;;;;;;3.40;2.20;;;9.20;98.00;;;;;;4994654;28;20486;-76
2024/03/12 12:48:48;;;;;;;5.30;2.47;;;9.40;98.00;;;;;;4978750;28;20480;-76
2024/03/12 12:51:18;;;;;;;4.20;2.53;;;9.50;98.00;;;;;;4994644;28;20538;-76
2024/03/12 12:53:45;;;;;;;8.33;2.80;;;9.50;98.00;;;;;;4994730;28;20552;-76
2024/03/12 12:56:18;;;;;;;5.37;2.73;;;9.50;98.00;;;;;;4994116;28;21185;-76
2024/03/12 12:58:47;;;;;;;7.80;3.40;;;9.50;98.00;;;;;;4994549;28;20460;-76
2024/03/12 13:01:15;;;;;;;8.93;4.10;;;9.60;98.00;;;;;;4994136;28;20494;-76
2024/03/12 13:03:49;;;;;;;8.40;4.27;;;9.40;98.00;;;;;;4994330;28;20493;-76
2024/03/12 13:06:20;;;;;;;11.37;4.20;;;9.40;98.00;;;;;;4977004;28;20497;-75
2024/03/12 13:08:51;;;;;;;12.77;5.30;;;9.40;98.00;;;;;;4993925;28;20884;-75
2024/03/12 13:11:20;;;;;;;13.77;5.10;;;9.50;98.00;;;;;;4994237;28;20817;-76
2024/03/12 13:13:48;;;;;;;12.80;5.80;;;9.60;98.00;;;;;;4994574;28;20462;-77